Time;durP1;ratioP1;P1;durP2;ratioP2;P2;SDS_P1;SDS_P2;PMS_P1;PMS_P2;Temp;Humidity;BMP_temperature;BMP_pressure;BME280_temperature;BME280_humidity;BME280_pressure;Samples;Min_cycle;Max_cycle;Signal;HPM_P1;HPM_P2
2023/03/08 08:51:42;;;;;;;1.93;1.40;;;2.00;99.90;;;;;;3906070;23;20712;-77
2023/03/08 08:54:09;;;;;;;2.97;1.80;;;1.90;99.90;;;;;;4909132;29;20211;-77
2023/03/08 08:56:41;;;;;;;2.83;1.53;;;2.00;99.90;;;;;;4902911;29;20572;-75
2023/03/08 08:59:10;;;;;;;2.43;1.67;;;2.00;99.90;;;;;;4916387;29;20225;-76
2023/03/08 09:01:42;;;;;;;3.87;1.90;;;2.10;99.90;;;;;;4916326;29;20216;-77
2023/03/08 09:04:09;;;;;;;2.17;1.60;;;2.10;99.90;;;;;;4916452;29;20213;-77
2023/03/08 09:06:36;;;;;;;2.63;1.70;;;2.30;99.90;;;;;;4916432;29;20230;-77
2023/03/08 09:09:04;;;;;;;2.63;1.77;;;2.30;99.90;;;;;;4916342;29;20232;-76
2023/03/08 09:11:32;;;;;;;3.30;1.80;;;2.40;99.90;;;;;;4916128;29;20210;-77
2023/03/08 09:14:01;;;;;;;2.67;1.47;;;2.20;99.90;;;;;;4916321;29;20224;-77
2023/03/08 09:16:29;;;;;;;1.93;1.20;;;2.20;99.90;;;;;;4915967;29;20216;-77
2023/03/08 09:18:57;;;;;;;3.50;1.50;;;2.10;99.90;;;;;;4916245;29;20229;-76
2023/03/08 09:21:25;;;;;;;2.63;1.67;;;2.20;99.90;;;;;;4916117;29;20217;-76
2023/03/08 09:23:52;;;;;;;2.80;1.60;;;2.30;99.90;;;;;;4917993;29;20673;-76
2023/03/08 09:26:21;;;;;;;3.17;1.40;;;2.50;99.90;;;;;;4919424;29;20213;-76
2023/03/08 09:28:48;;;;;;;3.00;2.07;;;2.40;99.90;;;;;;4919339;29;20229;-76
2023/03/08 09:31:16;;;;;;;4.93;2.00;;;2.40;99.90;;;;;;4919515;29;20213;-75
2023/03/08 09:33:45;;;;;;;5.53;2.10;;;2.50;99.90;;;;;;4919577;29;20224;-75
2023/03/08 09:36:12;;;;;;;2.97;1.83;;;2.50;99.90;;;;;;4919616;29;20217;-75
2023/03/08 09:38:40;;;;;;;3.50;2.20;;;2.40;99.90;;;;;;4919202;29;20388;-75
2023/03/08 09:41:25;;;;;;;4.07;2.20;;;2.40;99.90;;;;;;4919283;29;20213;-75
2023/03/08 09:44:09;;;;;;;4.53;2.00;;;2.40;99.90;;;;;;4919000;29;20213;-75
2023/03/08 09:46:40;;;;;;;4.20;1.90;;;2.40;99.90;;;;;;4919181;29;20209;-74
2023/03/08 09:49:13;;;;;;;3.30;2.00;;;2.60;99.90;;;;;;4919075;29;20272;-74
2023/03/08 09:51:46;;;;;;;3.20;1.87;;;2.60;99.90;;;;;;4918911;29;20217;-75
2023/03/08 09:54:20;;;;;;;4.30;2.30;;;2.70;99.90;;;;;;4918746;29;20217;-74
2023/03/08 09:56:50;;;;;;;3.80;2.37;;;2.70;99.90;;;;;;4919124;29;20219;-74
2023/03/08 09:59:24;;;;;;;4.13;2.00;;;2.80;99.90;;;;;;4918985;29;20230;-74
2023/03/08 10:01:58;;;;;;;3.17;1.73;;;2.70;99.90;;;;;;4918789;29;20214;-74
2023/03/08 10:04:46;;;;;;;3.57;2.23;;;2.70;99.90;;;;;;4918719;29;20201;-73
2023/03/08 10:07:24;;;;;;;2.33;1.83;;;2.70;99.90;;;;;;4918524;29;20239;-75
2023/03/08 10:10:01;;;;;;;3.77;2.13;;;2.60;99.90;;;;;;4918535;29;20226;-74
2023/03/08 10:12:36;;;;;;;3.17;2.03;;;2.50;99.90;;;;;;4918807;29;20210;-74
2023/03/08 10:15:08;;;;;;;4.23;2.37;;;2.50;99.90;;;;;;4918674;29;20205;-74
2023/03/08 10:17:43;;;;;;;2.77;1.90;;;2.60;99.90;;;;;;4918649;29;20210;-74
2023/03/08 10:20:18;;;;;;;4.97;2.77;;;2.50;99.90;;;;;;4918342;29;20722;-74
2023/03/08 10:22:48;;;;;;;2.73;1.80;;;2.40;99.90;;;;;;4918412;29;20566;-74
2023/03/08 10:25:23;;;;;;;3.53;2.47;;;2.60;99.90;;;;;;4918472;29;20569;-74
2023/03/08 10:27:54;;;;;;;2.80;1.87;;;2.70;99.90;;;;;;4918600;29;20845;-73
2023/03/08 10:30:32;;;;;;;3.23;2.17;;;3.00;99.90;;;;;;4918479;29;20214;-74
2023/03/08 10:33:01;;;;;;;3.33;1.97;;;3.10;99.90;;;;;;4915172;29;20640;-75
2023/03/08 10:35:33;;;;;;;3.73;2.40;;;3.10;99.90;;;;;;4916640;29;20205;-75
2023/03/08 10:38:00;;;;;;;4.43;2.50;;;3.00;99.90;;;;;;4917540;29;20225;-76
2023/03/08 10:40:27;;;;;;;6.43;2.50;;;3.10;99.90;;;;;;4918061;29;20205;-73
2023/03/08 10:42:59;;;;;;;3.20;2.40;;;3.10;99.90;;;;;;4918185;29;20213;-73
2023/03/08 10:45:28;;;;;;;4.60;2.60;;;3.20;99.90;;;;;;4917994;29;20591;-73
2023/03/08 10:48:00;;;;;;;4.70;2.63;;;3.10;99.90;;;;;;4917974;29;20259;-74
2023/03/08 10:50:28;;;;;;;4.70;2.77;;;3.00;99.90;;;;;;4917946;29;20572;-72
2023/03/08 10:53:07;;;;;;;4.20;2.90;;;3.20;99.90;;;;;;4917530;29;20702;-74
2023/03/08 10:55:42;;;;;;;3.70;2.63;;;3.10;99.90;;;;;;4917947;29;20240;-73
2023/03/08 10:58:31;;;;;;;5.27;2.67;;;3.20;99.90;;;;;;4917739;29;20688;-73
2023/03/08 11:00:59;;;;;;;4.60;2.70;;;3.20;99.90;;;;;;4917735;29;20210;-73
2023/03/08 11:03:27;;;;;;;6.73;3.17;;;3.30;99.90;;;;;;4917354;29;20572;-72
2023/03/08 11:05:57;;;;;;;5.83;3.47;;;3.30;99.90;;;;;;4917401;29;20205;-72
2023/03/08 11:08:27;;;;;;;4.80;2.47;;;3.40;99.90;;;;;;4917366;29;20241;-72
2023/03/08 11:11:08;;;;;;;5.13;3.00;;;3.60;99.90;;;;;;4917292;29;20216;-73
2023/03/08 11:13:40;;;;;;;6.57;3.90;;;3.90;99.90;;;;;;4917511;29;20285;-75
2023/03/08 11:16:38;;;;;;;6.50;3.10;;;3.80;99.90;;;;;;4917787;29;20253;-72
2023/03/08 11:19:14;;;;;;;5.77;3.23;;;3.70;99.90;;;;;;4905642;29;20233;-74
2023/03/08 11:21:52;;;;;;;6.07;3.07;;;3.60;99.90;;;;;;4917264;29;20213;-73
2023/03/08 11:24:30;;;;;;;6.23;3.37;;;3.60;99.90;;;;;;4917109;29;20209;-75
2023/03/08 11:27:12;;;;;;;4.87;3.10;;;3.30;99.90;;;;;;4917532;29;20252;-74
2023/03/08 11:29:53;;;;;;;6.70;4.30;;;3.30;99.90;;;;;;4917271;29;20225;-73
2023/03/08 11:32:34;;;;;;;5.77;3.23;;;3.40;99.90;;;;;;4917325;29;20300;-73
2023/03/08 11:35:12;;;;;;;5.30;3.33;;;3.40;99.90;;;;;;4917326;29;20600;-74
2023/03/08 11:37:44;;;;;;;6.07;3.90;;;3.50;99.90;;;;;;4916895;29;20220;-73
2023/03/08 11:40:21;;;;;;;4.43;2.60;;;3.50;99.90;;;;;;4916594;29;20236;-74
2023/03/08 11:43:05;;;;;;;5.90;3.47;;;3.40;99.90;;;;;;4916505;29;20748;-73
2023/03/08 11:45:38;;;;;;;7.13;3.60;;;3.50;99.90;;;;;;4916694;29;20692;-73
2023/03/08 11:48:39;;;;;;;5.57;3.73;;;3.50;99.90;;;;;;4916960;29;20697;-73
2023/03/08 11:51:14;;;;;;;14.43;5.27;;;3.60;99.90;;;;;;4905015;29;20220;-73
2023/03/08 11:53:51;;;;;;;6.03;3.77;;;3.70;99.90;;;;;;4916748;29;20209;-73
2023/03/08 11:56:39;;;;;;;5.60;3.37;;;3.80;99.90;;;;;;4916911;29;20657;-73
2023/03/08 11:59:14;;;;;;;5.60;3.47;;;3.80;99.90;;;;;;4914294;29;20234;-74
2023/03/08 12:01:48;;;;;;;6.13;3.47;;;3.50;99.90;;;;;;4916533;29;20211;-73
2023/03/08 12:04:20;;;;;;;6.37;4.10;;;3.60;99.90;;;;;;4916674;29;20209;-74
2023/03/08 12:06:48;;;;;;;5.60;3.43;;;3.50;99.90;;;;;;4916686;29;20653;-74
2023/03/08 12:09:22;;;;;;;9.30;4.40;;;3.50;99.90;;;;;;4916158;29;20241;-73
2023/03/08 12:11:53;;;;;;;7.20;4.23;;;3.60;99.90;;;;;;4916827;29;20265;-72
2023/03/08 12:14:24;;;;;;;5.07;3.20;;;3.60;99.90;;;;;;4916963;29;20207;-75
2023/03/08 12:16:59;;;;;;;5.17;3.50;;;3.50;99.90;;;;;;4916485;29;20673;-73
2023/03/08 12:19:34;;;;;;;6.20;3.70;;;3.50;99.90;;;;;;4916673;29;20340;-75
2023/03/08 12:22:12;;;;;;;5.10;3.40;;;3.50;99.90;;;;;;4916867;29;20208;-75
2023/03/08 12:24:48;;;;;;;6.17;3.20;;;3.50;99.90;;;;;;4916406;29;20209;-73
2023/03/08 12:27:22;;;;;;;5.77;3.37;;;3.40;99.90;;;;;;4916232;29;20201;-73
2023/03/08 12:29:54;;;;;;;7.37;4.10;;;3.40;99.90;;;;;;4916159;29;20233;-73
2023/03/08 12:32:23;;;;;;;6.10;3.83;;;3.50;99.90;;;;;;4916614;29;20239;-73
2023/03/08 12:35:01;;;;;;;8.10;4.33;;;3.60;99.90;;;;;;4916327;29;20216;-73
2023/03/08 12:37:30;;;;;;;8.20;4.20;;;3.80;99.90;;;;;;4916601;29;20313;-73
2023/03/08 12:40:00;;;;;;;8.03;4.83;;;3.80;99.90;;;;;;4916468;29;20589;-73
2023/03/08 12:42:32;;;;;;;9.97;5.07;;;3.90;99.90;;;;;;4916237;29;20304;-73
2023/03/08 12:45:25;;;;;;;9.23;3.90;;;4.00;99.90;;;;;;4916476;29;20206;-73
2023/03/08 12:48:00;;;;;;;5.93;3.90;;;3.60;99.90;;;;;;4915899;29;20296;-74
2023/03/08 12:50:27;;;;;;;8.00;4.53;;;3.60;99.90;;;;;;4916131;29;20216;-74
2023/03/08 12:52:55;;;;;;;11.80;5.20;;;3.70;99.90;;;;;;4915557;29;20218;-73
2023/03/08 12:55:30;;;;;;;7.40;4.17;;;3.80;99.90;;;;;;4916138;29;20218;-74
2023/03/08 12:57:58;;;;;;;7.87;3.83;;;3.90;99.90;;;;;;4912084;29;20224;-74
2023/03/08 13:00:28;;;;;;;5.90;4.00;;;3.90;99.90;;;;;;4920107;29;20205;-73
2023/03/08 13:03:04;;;;;;;6.10;4.00;;;4.00;99.90;;;;;;4920204;29;20209;-73
2023/03/08 13:05:35;;;;;;;4.97;3.37;;;4.20;99.90;;;;;;4919855;29;20209;-73
2023/03/08 13:08:17;;;;;;;8.83;4.60;;;4.10;99.90;;;;;;4919165;29;20237;-74
2023/03/08 13:10:59;;;;;;;6.67;4.37;;;4.20;99.90;;;;;;4919688;29;20209;-73
2023/03/08 13:13:33;;;;;;;8.90;4.57;;;4.20;99.90;;;;;;4919738;29;20313;-74
2023/03/08 13:16:21;;;;;;;8.20;3.90;;;4.10;99.90;;;;;;4919935;29;20557;-73
2023/03/08 13:19:00;;;;;;;5.97;3.63;;;4.00;99.90;;;;;;4919306;29;20226;-73
2023/03/08 13:21:34;;;;;;;5.97;3.80;;;4.00;99.90;;;;;;4919349;29;20206;-73
2023/03/08 13:24:09;;;;;;;6.33;4.27;;;4.10;99.90;;;;;;4919670;29;20209;-73
2023/03/08 13:26:57;;;;;;;9.33;5.37;;;4.30;99.90;;;;;;4919433;29;20665;-73
2023/03/08 13:29:30;;;;;;;6.97;3.77;;;4.30;99.90;;;;;;4919288;29;20241;-73
2023/03/08 13:31:57;;;;;;;8.47;4.33;;;4.20;99.90;;;;;;4919327;29;20558;-73
2023/03/08 13:34:28;;;;;;;7.37;3.53;;;4.20;99.90;;;;;;4919174;29;20210;-73
2023/03/08 13:36:55;;;;;;;5.33;3.77;;;4.30;99.90;;;;;;4919358;29;20213;-73
2023/03/08 13:39:24;;;;;;;8.83;5.13;;;4.20;99.90;;;;;;4919409;29;20247;-74
2023/03/08 13:41:51;;;;;;;6.70;3.80;;;4.20;99.90;;;;;;4919241;29;20680;-73
2023/03/08 13:44:22;;;;;;;6.53;4.20;;;4.30;99.90;;;;;;4919137;29;20217;-73
2023/03/08 13:46:50;;;;;;;5.10;3.53;;;4.30;99.90;;;;;;4919358;29;20304;-73
2023/03/08 13:49:19;;;;;;;5.57;3.43;;;4.30;99.90;;;;;;4918451;29;20256;-74
2023/03/08 13:51:51;;;;;;;7.73;4.67;;;4.20;99.90;;;;;;4919114;29;20221;-73
2023/03/08 13:54:28;;;;;;;7.50;4.00;;;4.30;99.90;;;;;;4918341;29;20297;-73
2023/03/08 13:56:55;;;;;;;7.77;4.57;;;4.30;99.90;;;;;;4918972;29;20250;-73
2023/03/08 13:59:22;;;;;;;7.27;4.43;;;4.20;99.90;;;;;;4918864;29;20287;-73
2023/03/08 14:01:50;;;;;;;8.77;4.60;;;4.20;99.90;;;;;;4918797;29;20205;-73
2023/03/08 14:04:20;;;;;;;7.63;4.23;;;4.30;99.90;;;;;;4918872;29;20209;-73
2023/03/08 14:06:52;;;;;;;7.20;4.73;;;4.40;99.90;;;;;;4918927;29;20748;-73
2023/03/08 14:09:20;;;;;;;6.83;4.27;;;4.50;99.90;;;;;;4918077;29;20256;-73
2023/03/08 14:11:56;;;;;;;6.27;3.90;;;4.50;99.90;;;;;;4913695;29;20214;-73
2023/03/08 14:14:28;;;;;;;10.80;4.00;;;4.40;99.90;;;;;;4917517;29;20205;-74
2023/03/08 14:16:56;;;;;;;8.27;4.97;;;4.40;99.90;;;;;;4917223;29;20252;-74
2023/03/08 14:19:25;;;;;;;7.17;4.40;;;4.40;99.90;;;;;;4916408;29;20233;-73
2023/03/08 14:21:56;;;;;;;9.30;4.53;;;4.40;99.90;;;;;;4916862;29;20209;-74
2023/03/08 14:24:25;;;;;;;5.87;3.47;;;4.20;99.90;;;;;;4917465;29;20312;-74
2023/03/08 14:26:59;;;;;;;7.50;4.50;;;4.20;99.90;;;;;;4917022;29;20210;-73
2023/03/08 14:29:26;;;;;;;8.40;4.77;;;4.20;99.90;;;;;;4917108;29;20329;-73
2023/03/08 14:32:04;;;;;;;7.50;4.53;;;4.30;99.90;;;;;;4916593;29;20209;-73
2023/03/08 14:34:34;;;;;;;7.60;4.50;;;4.30;99.90;;;;;;4914011;29;20213;-76
2023/03/08 14:37:06;;;;;;;8.53;4.80;;;4.30;99.90;;;;;;4916725;29;20236;-79
2023/03/08 14:39:35;;;;;;;6.80;4.37;;;4.50;99.90;;;;;;4917192;29;20244;-77
2023/03/08 14:42:11;;;;;;;7.83;4.67;;;4.50;99.90;;;;;;4916164;29;20251;-77
2023/03/08 14:44:38;;;;;;;6.60;4.27;;;4.30;99.90;;;;;;4916738;29;20213;-77
2023/03/08 14:47:09;;;;;;;8.87;5.03;;;4.10;99.90;;;;;;4915459;29;20213;-77
2023/03/08 14:49:36;;;;;;;8.00;4.13;;;4.10;99.90;;;;;;4913999;29;20242;-78
2023/03/08 14:52:04;;;;;;;9.07;4.80;;;4.20;99.90;;;;;;4916445;29;20221;-77
2023/03/08 14:54:33;;;;;;;9.57;5.10;;;4.20;99.90;;;;;;4916314;29;20720;-77
2023/03/08 14:57:13;;;;;;;8.03;4.80;;;4.30;99.90;;;;;;4916060;29;20643;-81
2023/03/08 14:59:41;;;;;;;10.30;5.10;;;4.20;99.90;;;;;;4916500;29;20244;-77
2023/03/08 15:02:12;;;;;;;7.53;4.60;;;4.20;99.90;;;;;;4916626;29;20538;-76
2023/03/08 15:04:39;;;;;;;8.50;4.60;;;4.40;99.90;;;;;;4916332;29;20213;-76
2023/03/08 15:07:14;;;;;;;7.17;4.50;;;4.30;99.90;;;;;;4916507;29;20236;-84
2023/03/08 15:09:41;;;;;;;7.40;4.60;;;4.10;99.90;;;;;;4915990;29;20589;-80
2023/03/08 15:12:11;;;;;;;10.00;5.47;;;4.20;99.90;;;;;;4915916;29;20214;-77
2023/03/08 15:14:37;;;;;;;9.40;6.10;;;4.20;99.90;;;;;;4916111;29;20224;-76
2023/03/08 15:17:04;;;;;;;9.47;5.23;;;4.30;99.90;;;;;;4916416;29;20210;-76
2023/03/08 15:19:31;;;;;;;8.10;4.97;;;4.30;99.90;;;;;;4915996;29;20574;-74
2023/03/08 15:22:00;;;;;;;9.97;5.40;;;4.20;99.90;;;;;;4914348;29;20222;-78
2023/03/08 15:24:28;;;;;;;8.63;5.50;;;4.10;99.90;;;;;;4913745;29;20205;-77
2023/03/08 15:26:56;;;;;;;8.90;5.27;;;4.10;99.90;;;;;;4915764;29;20330;-76
2023/03/08 15:29:27;;;;;;;10.10;5.03;;;3.90;99.90;;;;;;4915823;29;20293;-79
2023/03/08 15:31:55;;;;;;;6.93;4.30;;;3.80;99.90;;;;;;4916124;29;20206;-76
2023/03/08 15:34:22;;;;;;;7.67;4.47;;;3.70;99.90;;;;;;4915823;29;20288;-75
2023/03/08 15:36:50;;;;;;;8.83;4.70;;;3.60;99.90;;;;;;4915700;29;20301;-76
2023/03/08 15:39:17;;;;;;;7.70;4.37;;;3.70;99.90;;;;;;4915444;29;20234;-75
2023/03/08 15:41:45;;;;;;;8.27;4.50;;;3.60;99.90;;;;;;4915180;29;20304;-78
2023/03/08 15:44:13;;;;;;;7.97;4.80;;;3.50;99.90;;;;;;4916047;29;20301;-75
2023/03/08 15:46:39;;;;;;;8.50;5.33;;;3.40;99.90;;;;;;4915685;29;20214;-75
2023/03/08 15:49:07;;;;;;;9.93;5.13;;;3.70;99.90;;;;;;4914865;29;20251;-76
2023/03/08 15:51:35;;;;;;;7.67;5.00;;;3.90;99.90;;;;;;4915666;29;20241;-77
2023/03/08 15:54:02;;;;;;;10.73;5.10;;;4.10;99.90;;;;;;4916456;29;20208;-77
2023/03/08 15:56:30;;;;;;;9.43;5.40;;;3.80;99.90;;;;;;4915273;29;20265;-77
2023/03/08 15:58:59;;;;;;;9.73;5.47;;;3.80;99.90;;;;;;4915328;29;20233;-77
2023/03/08 16:01:27;;;;;;;9.40;5.43;;;4.00;99.90;;;;;;4915656;29;20209;-77
2023/03/08 16:03:54;;;;;;;10.70;5.50;;;4.00;99.90;;;;;;4915321;29;20273;-77
2023/03/08 16:06:23;;;;;;;9.43;5.43;;;3.90;99.90;;;;;;4915739;29;20217;-77
2023/03/08 16:08:50;;;;;;;11.20;6.00;;;3.90;99.90;;;;;;4914793;29;20241;-76
2023/03/08 16:11:20;;;;;;;15.17;6.70;;;3.80;99.90;;;;;;4914983;29;20214;-77
2023/03/08 16:13:49;;;;;;;15.07;6.90;;;3.80;99.90;;;;;;4915754;29;20209;-76
2023/03/08 16:16:18;;;;;;;12.40;6.40;;;3.70;99.90;;;;;;4915248;29;20210;-78
2023/03/08 16:18:45;;;;;;;8.47;4.83;;;3.70;99.90;;;;;;4914518;29;20619;-77
2023/03/08 16:21:12;;;;;;;8.97;4.83;;;3.60;99.90;;;;;;4915036;29;20606;-75
2023/03/08 16:23:40;;;;;;;9.00;4.97;;;3.80;99.90;;;;;;4915456;29;20216;-76
2023/03/08 16:26:09;;;;;;;9.37;5.20;;;3.80;99.90;;;;;;4915052;29;20291;-78
2023/03/08 16:28:36;;;;;;;11.47;5.17;;;3.80;99.90;;;;;;4915335;29;20232;-76
2023/03/08 16:31:03;;;;;;;9.33;5.37;;;4.00;99.90;;;;;;4915597;29;20201;-77
2023/03/08 16:33:31;;;;;;;9.33;5.10;;;4.00;99.90;;;;;;4916994;29;20209;-79
2023/03/08 16:35:58;;;;;;;11.93;6.37;;;4.10;99.90;;;;;;4919842;29;20568;-76
2023/03/08 16:38:25;;;;;;;10.27;5.47;;;4.00;99.90;;;;;;4920094;29;20233;-76
2023/03/08 16:40:52;;;;;;;11.43;6.00;;;4.00;99.90;;;;;;4920534;29;20217;-74
2023/03/08 16:43:19;;;;;;;10.90;5.40;;;3.80;99.90;;;;;;4920028;29;20209;-74
2023/03/08 16:45:56;;;;;;;10.93;5.43;;;3.80;99.90;;;;;;4920055;29;20209;-75
2023/03/08 16:48:23;;;;;;;10.20;5.83;;;3.70;99.90;;;;;;4919668;29;20236;-74
2023/03/08 16:50:54;;;;;;;9.67;5.50;;;3.70;99.90;;;;;;4920237;29;20263;-74
2023/03/08 16:53:21;;;;;;;10.73;5.33;;;4.10;99.90;;;;;;4919990;29;20220;-74
2023/03/08 16:55:47;;;;;;;11.80;5.57;;;4.20;99.90;;;;;;4920320;29;20220;-74
2023/03/08 16:58:15;;;;;;;10.00;5.57;;;3.70;99.90;;;;;;4919591;29;20230;-74
2023/03/08 17:00:42;;;;;;;13.30;5.87;;;3.70;99.90;;;;;;4920034;29;20703;-74
2023/03/08 17:03:09;;;;;;;10.23;5.50;;;3.90;99.90;;;;;;4919849;29;20225;-74
2023/03/08 17:05:39;;;;;;;9.83;5.90;;;3.90;99.90;;;;;;4920062;29;20284;-73
2023/03/08 17:08:08;;;;;;;10.80;6.17;;;3.80;99.90;;;;;;4919437;29;20214;-74
2023/03/08 17:10:38;;;;;;;10.00;5.40;;;3.70;99.90;;;;;;4919718;29;20240;-74
2023/03/08 17:13:05;;;;;;;11.67;5.97;;;3.60;99.90;;;;;;4919686;29;20210;-74
2023/03/08 17:15:38;;;;;;;9.97;5.90;;;3.70;99.90;;;;;;4919310;29;20219;-74
2023/03/08 17:18:05;;;;;;;12.70;6.70;;;3.60;99.90;;;;;;4919418;29;20218;-74
2023/03/08 17:20:32;;;;;;;10.97;6.37;;;3.70;99.90;;;;;;4919709;29;20668;-74
2023/03/08 17:22:59;;;;;;;10.70;6.20;;;3.60;99.90;;;;;;4919811;29;20210;-73
2023/03/08 17:25:27;;;;;;;10.87;6.33;;;3.50;99.90;;;;;;4919294;29;20214;-77
2023/03/08 17:27:54;;;;;;;14.43;6.67;;;3.40;99.90;;;;;;4919792;29;20300;-75
2023/03/08 17:30:21;;;;;;;12.10;6.50;;;3.40;99.90;;;;;;4919343;29;20257;-76
2023/03/08 17:32:47;;;;;;;15.83;7.87;;;3.40;99.90;;;;;;4918934;29;20637;-76
2023/03/08 17:35:17;;;;;;;13.33;6.93;;;3.50;99.90;;;;;;4919318;29;20210;-77
2023/03/08 17:37:44;;;;;;;14.43;7.03;;;3.60;99.90;;;;;;4919152;29;20206;-77
2023/03/08 17:40:12;;;;;;;14.60;6.43;;;3.60;99.90;;;;;;4919306;29;20236;-83
2023/03/08 17:42:41;;;;;;;13.93;6.97;;;3.60;99.90;;;;;;4926192;29;20241;-86
2023/03/08 17:45:09;;;;;;;17.10;7.40;;;3.70;99.90;;;;;;4920704;29;20621;-84
2023/03/08 17:47:36;;;;;;;12.70;7.27;;;3.60;99.90;;;;;;4920479;29;20260;-83
2023/03/08 17:50:03;;;;;;;14.60;6.87;;;3.50;99.90;;;;;;4919868;29;20263;-78
2023/03/08 17:52:30;;;;;;;14.07;7.23;;;3.40;99.90;;;;;;4919377;29;20228;-80
2023/03/08 17:54:57;;;;;;;13.33;6.83;;;3.50;99.90;;;;;;4919245;29;20572;-78
2023/03/08 17:57:24;;;;;;;16.47;8.17;;;3.50;99.90;;;;;;4919455;29;20206;-76
2023/03/08 17:59:53;;;;;;;12.10;6.67;;;3.50;99.90;;;;;;4919259;29;20226;-77
2023/03/08 18:02:20;;;;;;;14.10;7.30;;;3.50;99.90;;;;;;4919265;29;20649;-76
2023/03/08 18:04:49;;;;;;;12.03;6.47;;;3.60;99.90;;;;;;4919369;29;20213;-83
2023/03/08 18:07:19;;;;;;;16.43;7.23;;;3.40;99.90;;;;;;4919121;29;20210;-82
2023/03/08 18:09:47;;;;;;;16.70;6.60;;;3.40;99.90;;;;;;4919127;29;20241;-79
2023/03/08 18:12:14;;;;;;;17.33;7.97;;;3.50;99.90;;;;;;4919146;29;20213;-82
2023/03/08 18:14:41;;;;;;;14.60;7.43;;;3.50;99.90;;;;;;4919654;29;20216;-83
2023/03/08 18:17:11;;;;;;;14.47;7.60;;;3.50;99.90;;;;;;4918964;29;20206;-80
2023/03/08 18:19:39;;;;;;;13.23;7.00;;;3.40;99.90;;;;;;4918623;29;20707;-82
2023/03/08 18:22:06;;;;;;;15.63;7.43;;;3.50;99.90;;;;;;4919077;29;20266;-80
2023/03/08 18:24:33;;;;;;;16.20;8.73;;;3.40;99.90;;;;;;4918599;29;20220;-81
2023/03/08 18:27:00;;;;;;;18.67;8.50;;;3.50;99.90;;;;;;4918764;29;20210;-81
2023/03/08 18:29:27;;;;;;;16.60;8.47;;;3.40;99.90;;;;;;4918679;29;20221;-81
2023/03/08 18:31:53;;;;;;;16.83;8.07;;;3.40;99.90;;;;;;4918752;29;20205;-81
2023/03/08 18:34:22;;;;;;;14.67;8.60;;;3.50;99.90;;;;;;4918839;29;20669;-82
2023/03/08 18:36:48;;;;;;;15.03;8.67;;;3.50;99.90;;;;;;4918727;29;20760;-84
2023/03/08 18:39:15;;;;;;;14.90;8.17;;;3.50;99.90;;;;;;4918516;29;20313;-83
2023/03/08 18:41:42;;;;;;;18.87;9.23;;;3.70;99.90;;;;;;4918577;29;20210;-82
2023/03/08 18:44:12;;;;;;;19.90;8.20;;;3.70;99.90;;;;;;4918226;29;20209;-83
2023/03/08 18:46:39;;;;;;;18.63;9.20;;;3.60;99.90;;;;;;4918925;29;20256;-81
2023/03/08 18:49:08;;;;;;;17.83;8.00;;;3.80;99.90;;;;;;4918793;29;20260;-83
2023/03/08 18:51:38;;;;;;;17.53;8.17;;;4.00;99.90;;;;;;4918044;29;20237;-79
2023/03/08 18:54:07;;;;;;;16.73;7.63;;;3.70;99.90;;;;;;4918258;29;20224;-80
2023/03/08 18:56:35;;;;;;;18.60;7.87;;;3.50;99.90;;;;;;4918812;29;20241;-83
2023/03/08 18:59:04;;;;;;;16.47;7.63;;;3.60;99.90;;;;;;4922123;29;20236;-81
2023/03/08 19:01:31;;;;;;;17.37;8.53;;;3.70;99.90;;;;;;4918332;29;20301;-82
2023/03/08 19:04:02;;;;;;;14.37;7.87;;;3.70;99.90;;;;;;4925782;29;20210;-82
2023/03/08 19:06:30;;;;;;;14.93;7.00;;;3.80;99.90;;;;;;4930195;29;20214;-80
2023/03/08 19:08:58;;;;;;;17.70;8.23;;;3.80;99.90;;;;;;4924277;29;20225;-81
2023/03/08 19:11:27;;;;;;;16.03;8.20;;;3.70;99.90;;;;;;4918077;29;20243;-81
2023/03/08 19:13:54;;;;;;;16.97;7.93;;;3.80;99.90;;;;;;4919269;29;20273;-84
2023/03/08 19:16:24;;;;;;;15.70;7.07;;;3.70;99.90;;;;;;4918079;29;20224;-83
2023/03/08 19:18:54;;;;;;;15.63;7.97;;;3.60;99.90;;;;;;4925443;29;20723;-80
2023/03/08 19:21:23;;;;;;;18.17;8.37;;;3.80;99.90;;;;;;4923951;29;20308;-83
2023/03/08 19:23:53;;;;;;;17.00;8.63;;;3.70;99.90;;;;;;4921957;29;20210;-82
2023/03/08 19:26:37;;;;;;;21.43;9.13;;;3.50;99.90;;;;;;4929829;29;21130;-79
2023/03/08 19:29:06;;;;;;;16.37;8.30;;;3.50;99.90;;;;;;4917328;29;20650;-80
2023/03/08 19:31:34;;;;;;;16.37;8.07;;;3.50;99.90;;;;;;4917707;29;20238;-81
2023/03/08 19:34:03;;;;;;;14.00;7.43;;;3.40;99.90;;;;;;4917860;29;20245;-80
2023/03/08 19:36:30;;;;;;;17.93;7.37;;;3.40;99.90;;;;;;4917673;29;20216;-79
2023/03/08 19:38:57;;;;;;;14.97;6.63;;;3.30;99.90;;;;;;4917465;29;20601;-80
2023/03/08 19:41:24;;;;;;;17.03;7.87;;;3.30;99.90;;;;;;4917412;29;20300;-79
2023/03/08 19:43:52;;;;;;;17.13;7.87;;;3.30;99.90;;;;;;4917649;29;20550;-83
2023/03/08 19:46:19;;;;;;;15.50;7.17;;;3.50;99.90;;;;;;4917651;29;20658;-81
2023/03/08 19:48:46;;;;;;;15.70;8.10;;;3.50;99.90;;;;;;4917584;29;20320;-80
2023/03/08 19:51:13;;;;;;;16.43;7.77;;;3.50;99.90;;;;;;4917653;29;20237;-82
2023/03/08 19:53:41;;;;;;;14.33;6.40;;;3.40;99.90;;;;;;4917454;29;20213;-81
2023/03/08 19:56:12;;;;;;;14.23;7.47;;;3.40;99.90;;;;;;4917569;29;20553;-82
2023/03/08 19:58:39;;;;;;;14.93;7.03;;;3.60;99.90;;;;;;4917697;29;20243;-83
2023/03/08 20:01:08;;;;;;;15.47;7.37;;;3.60;99.90;;;;;;4917860;29;20214;-83
2023/03/08 20:03:35;;;;;;;14.47;6.73;;;3.50;99.90;;;;;;4917464;29;20244;-82
2023/03/08 20:06:02;;;;;;;15.07;7.23;;;3.70;99.90;;;;;;4917370;29;20215;-80
2023/03/08 20:08:29;;;;;;;13.47;7.10;;;3.90;99.90;;;;;;4917184;29;20312;-81
2023/03/08 20:10:56;;;;;;;12.83;7.00;;;3.90;99.90;;;;;;4917418;29;20256;-83
2023/03/08 20:13:23;;;;;;;10.87;6.17;;;3.80;99.90;;;;;;4917572;29;20210;-82
2023/03/08 20:15:50;;;;;;;11.20;6.53;;;3.80;99.90;;;;;;4917542;29;20564;-82
2023/03/08 20:18:18;;;;;;;12.97;6.93;;;3.90;99.90;;;;;;4917162;29;20235;-83
2023/03/08 20:20:45;;;;;;;15.20;6.50;;;4.00;99.90;;;;;;4917456;29;20216;-82
2023/03/08 20:23:12;;;;;;;12.40;6.47;;;4.10;99.90;;;;;;4916235;29;20205;-80
2023/03/08 20:25:39;;;;;;;15.13;7.33;;;3.90;99.90;;;;;;4916265;29;20245;-80
2023/03/08 20:28:06;;;;;;;16.33;7.43;;;4.00;99.90;;;;;;4916683;29;20213;-80
2023/03/08 20:30:33;;;;;;;11.73;6.60;;;3.80;99.90;;;;;;4916683;29;20289;-80
2023/03/08 20:32:59;;;;;;;12.90;6.93;;;3.70;99.90;;;;;;4916540;29;20216;-80
2023/03/08 20:35:28;;;;;;;14.23;6.83;;;3.70;99.90;;;;;;4916071;29;20216;-80
2023/03/08 20:37:55;;;;;;;13.30;6.77;;;3.80;99.90;;;;;;4916060;29;20305;-80
2023/03/08 20:40:21;;;;;;;13.10;6.40;;;3.80;99.90;;;;;;4916292;29;20213;-80
2023/03/08 20:42:48;;;;;;;15.53;7.10;;;3.70;99.90;;;;;;4916223;29;20218;-80
2023/03/08 20:45:16;;;;;;;12.63;6.37;;;3.70;99.90;;;;;;4915051;29;20605;-80
2023/03/08 20:47:43;;;;;;;12.73;6.67;;;3.70;99.90;;;;;;4916282;29;20679;-79
2023/03/08 20:50:11;;;;;;;12.47;6.50;;;3.80;99.90;;;;;;4915691;29;20233;-79
2023/03/08 20:52:39;;;;;;;13.47;7.33;;;3.80;99.90;;;;;;4916065;29;20221;-79
2023/03/08 20:55:06;;;;;;;11.80;6.67;;;3.70;99.90;;;;;;4916137;29;20752;-80
2023/03/08 20:57:33;;;;;;;11.30;6.33;;;3.70;99.90;;;;;;4916474;29;20215;-79
2023/03/08 21:00:00;;;;;;;12.33;6.57;;;3.80;99.90;;;;;;4916710;29;20230;-79
2023/03/08 21:02:27;;;;;;;13.33;6.10;;;3.80;99.90;;;;;;4916013;29;20221;-80
2023/03/08 21:04:56;;;;;;;12.50;6.60;;;3.80;99.90;;;;;;4915972;29;20653;-80
2023/03/08 21:07:23;;;;;;;12.27;6.43;;;3.70;99.90;;;;;;4915850;29;20573;-79
2023/03/08 21:09:51;;;;;;;14.50;7.50;;;3.80;99.90;;;;;;4916087;29;20236;-79
2023/03/08 21:12:18;;;;;;;14.60;6.83;;;3.90;99.90;;;;;;4916252;29;20241;-81
2023/03/08 21:14:45;;;;;;;13.30;7.20;;;3.80;99.90;;;;;;4916401;29;20547;-81
2023/03/08 21:17:12;;;;;;;13.97;6.90;;;3.90;99.90;;;;;;4916093;29;20209;-81
2023/03/08 21:19:39;;;;;;;12.10;6.27;;;3.80;99.90;;;;;;4917578;29;20236;-80
2023/03/08 21:22:06;;;;;;;12.00;6.17;;;3.80;99.90;;;;;;4919893;29;20228;-80
2023/03/08 21:24:32;;;;;;;12.03;5.93;;;3.80;99.90;;;;;;4918823;29;20205;-80
2023/03/08 21:27:01;;;;;;;10.07;5.53;;;3.80;99.90;;;;;;4919580;29;20235;-80
2023/03/08 21:29:28;;;;;;;13.27;6.17;;;3.80;99.90;;;;;;4919584;29;20232;-80
2023/03/08 21:31:55;;;;;;;12.43;6.20;;;3.80;99.90;;;;;;4918832;29;20233;-79
2023/03/08 21:34:22;;;;;;;13.83;6.90;;;3.90;99.90;;;;;;4919486;29;20209;-80
2023/03/08 21:36:49;;;;;;;12.67;6.43;;;4.00;99.90;;;;;;4918658;29;20304;-80
2023/03/08 21:39:17;;;;;;;11.53;5.97;;;4.00;99.90;;;;;;4919109;29;20316;-80
2023/03/08 21:41:45;;;;;;;11.80;5.67;;;4.20;99.90;;;;;;4918543;29;20221;-80
2023/03/08 21:44:17;;;;;;;13.33;6.17;;;4.20;99.90;;;;;;4916806;29;20198;-80
2023/03/08 21:46:45;;;;;;;13.10;5.77;;;4.10;99.90;;;;;;4918328;29;20293;-81
2023/03/08 21:49:16;;;;;;;14.93;7.10;;;4.10;99.90;;;;;;4916986;29;20226;-83
2023/03/08 21:51:43;;;;;;;14.10;7.00;;;4.10;99.90;;;;;;4917473;29;20728;-83
2023/03/08 21:54:10;;;;;;;12.63;6.87;;;4.10;99.90;;;;;;4918549;29;20214;-80
2023/03/08 21:56:37;;;;;;;13.07;7.00;;;4.10;99.90;;;;;;4918612;29;20210;-80
2023/03/08 21:59:04;;;;;;;13.93;7.43;;;4.30;99.90;;;;;;4918508;29;20233;-83